createdAt,value
2018-06-18T00:00:41.363Z,79.8
2018-06-18T00:01:50.916Z,79.8
2018-06-18T00:03:00.741Z,79.8
2018-06-18T00:04:10.812Z,79.7
2018-06-18T00:05:20.619Z,79.66
2018-06-18T00:06:30.688Z,79.66
2018-06-18T00:07:40.284Z,79.89
2018-06-18T00:08:50.340Z,79.66
2018-06-18T00:10:00.418Z,79.85
2018-06-18T00:11:10.208Z,79.66
2018-06-18T00:12:20.285Z,79.85
2018-06-18T00:13:30.121Z,79.66
2018-06-18T00:14:40.183Z,79.66
2018-06-18T00:15:50.265Z,79.75
2018-06-18T00:17:00.338Z,79.66
2018-06-18T00:18:10.158Z,79.66
2018-06-18T00:19:19.980Z,79.85
2018-06-18T00:20:30.040Z,79.75
2018-06-18T00:21:39.838Z,79.56
2018-06-18T00:22:49.934Z,79.85
2018-06-18T00:23:59.745Z,79.75
2018-06-18T00:25:09.809Z,79.56
2018-06-18T00:26:19.890Z,79.85
2018-06-18T00:27:29.446Z,79.66
2018-06-18T00:28:39.252Z,79.75
2018-06-18T00:29:49.072Z,79.85
2018-06-18T00:30:59.135Z,79.75
2018-06-18T00:32:09.218Z,79.56
2018-06-18T00:33:19.307Z,79.85
2018-06-18T00:34:29.384Z,79.66
2018-06-18T00:35:39.468Z,79.56
2018-06-18T00:36:49.592Z,80.14
2018-06-18T00:37:59.671Z,79.85
2018-06-18T00:39:09.746Z,79.66
2018-06-18T00:40:19.822Z,79.75
2018-06-18T00:41:29.914Z,79.66
2018-06-18T00:42:40.041Z,79.66
2018-06-18T00:43:50.111Z,79.66
2018-06-18T00:45:00.208Z,79.56
2018-06-18T00:46:09.761Z,79.75
2018-06-18T00:47:19.583Z,79.66
2018-06-18T00:48:29.669Z,79.75
2018-06-18T00:49:39.480Z,79.85
2018-06-18T00:50:49.298Z,79.66
2018-06-18T00:51:59.422Z,80.05
2018-06-18T00:53:09.504Z,80.05
2018-06-18T00:54:19.053Z,80.14
2018-06-18T00:55:29.135Z,79.75
2018-06-18T00:56:39.200Z,79.85
2018-06-18T00:57:49.023Z,80.24
2018-06-18T00:58:59.105Z,80.1
2018-06-18T01:00:09.167Z,80.33
2018-06-18T01:01:18.975Z,80.3
2018-06-18T01:02:29.100Z,80.14
2018-06-18T01:03:38.911Z,80.1
2018-06-18T01:04:48.729Z,79.81
2018-06-18T01:05:58.814Z,80.1
2018-06-18T01:07:08.634Z,80.1
2018-06-18T01:08:18.192Z,80
2018-06-18T01:09:28.010Z,80.1
2018-06-18T01:10:38.102Z,80.3
2018-06-18T01:11:47.903Z,79.62
2018-06-18T01:12:57.719Z,80.3
2018-06-18T01:14:07.802Z,80.1
2018-06-18T01:15:17.338Z,80.3
2018-06-18T01:16:27.405Z,80.2
2018-06-18T01:17:37.496Z,80.2
2018-06-18T01:18:47.577Z,80.3
2018-06-18T01:19:57.664Z,80.1
2018-06-18T01:21:07.222Z,79.62
2018-06-18T01:22:17.032Z,80.1
2018-06-18T01:23:27.104Z,80.1
2018-06-18T01:24:37.169Z,80.2
2018-06-18T01:25:46.987Z,80.3
2018-06-18T01:26:56.786Z,80.1
2018-06-18T01:28:06.855Z,80
2018-06-18T01:29:16.939Z,79.91
2018-06-18T01:30:26.771Z,80.1
2018-06-18T01:31:36.586Z,79.91
2018-06-18T01:32:46.665Z,80
2018-06-18T01:33:56.741Z,80
2018-06-18T01:35:06.813Z,80.1
2018-06-18T01:36:16.637Z,80.1
2018-06-18T01:37:26.731Z,80.1
2018-06-18T01:38:36.800Z,80.1
2018-06-18T01:39:46.878Z,79.91
2018-06-18T01:40:56.947Z,80.1
2018-06-18T01:42:07.026Z,80.1
2018-06-18T01:43:17.096Z,80.1
2018-06-18T01:44:27.163Z,79.91
2018-06-18T01:45:37.233Z,80.1
2018-06-18T01:46:47.300Z,79.91
2018-06-18T01:47:57.375Z,80.1
2018-06-18T01:49:06.940Z,79.91
2018-06-18T01:50:17.005Z,80.1
2018-06-18T01:51:27.070Z,80.1
2018-06-18T01:52:37.129Z,80.06
2018-06-18T01:53:47.190Z,80.06
2018-06-18T01:54:57.266Z,80
2018-06-18T01:56:07.349Z,80.06
2018-06-18T01:57:17.414Z,79.97
2018-06-18T01:58:27.492Z,80.06
2018-06-18T01:59:37.564Z,80.06
2018-06-18T02:00:47.114Z,80.06
2018-06-18T02:01:57.188Z,79.91
2018-06-18T02:03:07.012Z,80.16
2018-06-18T02:04:17.070Z,80.1
2018-06-18T02:05:26.888Z,79.97
2018-06-18T02:06:37.206Z,79.87
2018-06-18T02:07:47.293Z,80.16
2018-06-18T02:08:57.368Z,80.06
2018-06-18T02:10:07.435Z,80.26
2018-06-18T02:11:17.266Z,80.06
2018-06-18T02:12:27.335Z,80.06
2018-06-18T02:13:37.149Z,79.52
2018-06-18T02:14:46.961Z,79.97
2018-06-18T02:15:57.048Z,80.1
2018-06-18T02:17:07.136Z,80.1
2018-06-18T02:18:17.221Z,79.77
2018-06-18T02:19:27.328Z,79.77
2018-06-18T02:20:37.392Z,79.77
2018-06-18T02:21:47.201Z,79.58
2018-06-18T02:22:57.309Z,79.68
2018-06-18T02:24:07.385Z,79.58
2018-06-18T02:25:17.196Z,79.58
2018-06-18T02:26:27.258Z,79.72
2018-06-18T02:27:37.325Z,79.72
2018-06-18T02:28:47.388Z,79.58
2018-06-18T02:29:56.954Z,79.62
2018-06-18T02:31:07.018Z,79.81
2018-06-18T02:32:17.175Z,79.81
2018-06-18T02:33:27.345Z,79.62
2018-06-18T02:34:37.173Z,79.62
2018-06-18T02:35:47.284Z,79.62
2018-06-18T02:36:57.113Z,80
2018-06-18T02:38:07.202Z,79.91
2018-06-18T02:39:17.297Z,79.52
2018-06-18T02:40:27.114Z,79.91
2018-06-18T02:41:37.195Z,80
2018-06-18T02:42:47.029Z,79.72
2018-06-18T02:43:57.117Z,79.81
2018-06-18T02:45:07.323Z,79.72
2018-06-18T02:46:17.413Z,79.91
2018-06-18T02:47:27.489Z,79.62
2018-06-18T02:48:37.582Z,79.81
2018-06-18T02:49:47.409Z,79.72
2018-06-18T02:50:57.485Z,79.81
2018-06-18T02:52:07.548Z,79.52
2018-06-18T02:53:17.390Z,79.72
2018-06-18T02:54:27.459Z,80.2
2018-06-18T02:55:37.543Z,79.72
2018-06-18T02:56:47.624Z,79.33
2018-06-18T02:57:57.689Z,79.47
2018-06-18T02:59:07.758Z,80.24
2018-06-18T03:00:17.926Z,79.66
2018-06-18T03:01:28.399Z,78.99
2018-06-18T03:02:38.258Z,79.56
2018-06-18T03:34:32.157Z,74.05
2018-06-18T03:35:42.240Z,74.05
2018-06-18T03:36:51.793Z,74.43
2018-06-18T03:38:01.616Z,75.05
2018-06-18T03:39:11.442Z,76.07
2018-06-18T03:40:21.510Z,76.3
2018-06-18T03:41:31.575Z,76.5
2018-06-18T03:42:41.632Z,77.46
2018-06-18T03:43:51.689Z,77.55
2018-06-18T03:45:01.749Z,77.84
2018-06-18T03:46:11.566Z,78.03
2018-06-18T03:47:21.643Z,78.52
2018-06-18T03:48:31.709Z,78.66
2018-06-18T03:49:41.779Z,79.04
2018-06-18T03:50:51.855Z,79.14
2018-06-18T03:52:01.991Z,78.66
2018-06-18T03:53:12.072Z,78.99
2018-06-18T03:54:22.157Z,78.79
2018-06-18T03:55:32.235Z,78.79
2018-06-18T03:56:42.317Z,78.5
2018-06-18T03:57:52.464Z,78.92
2018-06-18T03:59:02.554Z,78.83
2018-06-18T04:00:12.636Z,78.54
2018-06-18T04:01:22.189Z,78.64
2018-06-18T04:02:32.012Z,78.73
2018-06-18T04:03:42.124Z,78.64
2018-06-18T04:04:51.679Z,78.54
2018-06-18T04:06:01.747Z,78.29
2018-06-18T04:07:11.823Z,78.09
2018-06-18T04:08:21.914Z,78.09
2018-06-18T04:09:31.782Z,78
2018-06-18T04:10:41.855Z,78.23
2018-06-18T04:11:51.672Z,78.33
2018-06-18T04:13:01.765Z,78.42
2018-06-18T04:14:11.592Z,78.33
2018-06-18T04:15:21.655Z,78.61
2018-06-18T04:16:31.491Z,78.17
2018-06-18T04:17:41.571Z,77.88
2018-06-18T04:18:51.375Z,77.3
2018-06-18T04:20:01.184Z,74.38
2018-06-18T04:21:11.277Z,72.97
2018-06-18T04:22:21.352Z,71.36
2018-06-18T04:23:31.166Z,70.36
2018-06-18T04:24:41.043Z,69.78
2018-06-18T04:25:51.332Z,69.75
2018-06-18T04:27:01.467Z,68.91
2018-06-18T04:28:11.001Z,69.17
2018-06-18T04:29:21.061Z,68.71
2018-06-18T04:30:31.142Z,68.85
2018-06-18T04:31:41.222Z,68.19
2018-06-18T04:32:51.083Z,68.52
2018-06-18T04:34:01.170Z,68.55
2018-06-18T04:35:11.263Z,69.08
2018-06-18T04:36:21.337Z,69.18
2018-06-18T04:37:31.503Z,70.71
2018-06-18T04:38:41.930Z,72.96
2018-06-18T04:39:52.015Z,74.9
2018-06-18T04:41:02.136Z,75.99
2018-06-18T04:42:11.692Z,76.86
2018-06-18T04:43:21.773Z,77.37
2018-06-18T04:44:31.852Z,78.07
2018-06-18T04:45:41.471Z,78.81
2018-06-18T04:46:51.280Z,78.48
2018-06-18T04:48:01.373Z,79.06
2018-06-18T04:49:11.203Z,78.92
2018-06-18T04:50:21.070Z,79.18
2018-06-18T04:51:31.158Z,79.18
2018-06-18T04:52:41.269Z,79.53
2018-06-18T04:53:51.368Z,79.1
2018-06-18T04:55:00.926Z,79.2
2018-06-18T04:56:11.005Z,79.39
2018-06-18T04:57:21.161Z,79.35
2018-06-18T04:58:31.238Z,78.97
2018-06-18T04:59:40.799Z,78.58
2018-06-18T05:00:50.614Z,78.09
2018-06-18T05:02:00.892Z,78.48
2018-06-18T05:03:10.702Z,76.99
2018-06-18T05:04:20.802Z,76.07
2018-06-18T05:05:30.892Z,76.32
2018-06-18T05:06:40.970Z,74.97
2018-06-18T05:07:51.088Z,74.98
2018-06-18T05:09:01.175Z,74.33
2018-06-18T05:10:11.272Z,73.66
2018-06-18T05:11:21.353Z,71.56
2018-06-18T05:12:30.899Z,70.23
2018-06-18T05:13:40.986Z,69.65
2018-06-18T05:14:51.061Z,68.91
2018-06-18T05:16:01.143Z,69.37
2018-06-18T05:17:10.948Z,68.95
2018-06-18T05:18:21.018Z,68.78
2018-06-18T05:19:31.076Z,68.59
2018-06-18T05:20:41.220Z,69.11
2018-06-18T05:21:51.351Z,70.15
2018-06-18T05:23:01.198Z,72.2
2018-06-18T05:24:11.277Z,73.66
2018-06-18T05:25:21.085Z,74.56
2018-06-18T05:26:31.261Z,75.26
2018-06-18T05:27:41.082Z,74.55
2018-06-18T05:28:50.892Z,73.86
2018-06-18T05:30:00.703Z,72.71
2018-06-18T05:31:10.798Z,72.45
2018-06-18T05:32:20.610Z,71.22
2018-06-18T05:33:30.698Z,71
2018-06-18T05:34:40.801Z,71.19
2018-06-18T05:35:50.887Z,71.31
2018-06-18T05:37:00.973Z,71.29
2018-06-18T05:38:11.042Z,70.31
2018-06-18T05:39:21.133Z,69.76
2018-06-18T05:40:31.215Z,69.01
2018-06-18T05:41:41.309Z,69.27
2018-06-18T05:42:51.406Z,68.49
2018-06-18T05:44:01.217Z,68.95
2018-06-18T05:45:11.298Z,68.85
2018-06-18T05:46:21.121Z,68.3
2018-06-18T05:47:31.183Z,68.33
2018-06-18T05:48:41.259Z,68.23
2018-06-18T05:49:51.343Z,68.52
2018-06-18T05:51:01.183Z,68.33
2018-06-18T05:52:11.019Z,67.97
2018-06-18T05:53:21.108Z,68.46
2018-06-18T05:54:30.953Z,68.26
2018-06-18T05:55:40.771Z,68.37
2018-06-18T05:56:50.845Z,68.16
2018-06-18T05:58:00.922Z,68.26
2018-06-18T05:59:11.005Z,68.26
2018-06-18T06:00:20.841Z,68.16
2018-06-18T06:01:30.641Z,68.85
2018-06-18T06:02:40.714Z,68.85
2018-06-18T06:03:50.805Z,68.79
2018-06-18T06:05:00.382Z,68.76
2018-06-18T06:06:10.788Z,69.05
2018-06-18T06:07:20.903Z,68.56
2018-06-18T06:08:30.975Z,68.76
2018-06-18T06:09:41.068Z,68.85
2018-06-18T06:10:51.146Z,68.79
2018-06-18T06:12:01.227Z,68.88
2018-06-18T06:13:11.322Z,68.98
2018-06-18T06:14:21.155Z,68.88
2018-06-18T06:15:31.236Z,68.88
2018-06-18T06:16:41.047Z,69.28
2018-06-18T06:17:51.207Z,68.98
2018-06-18T06:19:01.272Z,68.79
2018-06-18T06:20:11.362Z,69.67
2018-06-18T06:21:21.509Z,69.34
2018-06-18T06:22:31.674Z,69.44
2018-06-18T06:23:41.284Z,69.54
2018-06-18T06:24:51.352Z,68.95
2018-06-18T06:26:01.440Z,69.44
2018-06-18T06:27:11.525Z,69.44
2018-06-18T06:28:21.616Z,69.44
2018-06-18T06:29:31.809Z,69.05
2018-06-18T06:30:42.177Z,69.28
2018-06-18T06:31:52.252Z,68.88
2018-06-18T06:33:02.073Z,69.09
2018-06-18T06:34:12.290Z,69.28
2018-06-18T06:35:22.399Z,69.67
2018-06-18T06:36:32.463Z,69.38
2018-06-18T06:37:42.275Z,69.24
2018-06-18T06:38:52.438Z,69.15
2018-06-18T06:40:02.313Z,69.34
2018-06-18T06:41:12.400Z,69.93
2018-06-18T06:42:22.467Z,69.93
2018-06-18T06:43:32.599Z,70.03
2018-06-18T06:44:41.888Z,69.93
2018-06-18T06:45:51.974Z,69.64
2018-06-18T06:47:02.062Z,70.42
2018-06-18T06:48:12.159Z,70.32
2018-06-18T06:49:22.248Z,71.17
2018-06-18T06:50:32.334Z,70.68
2018-06-18T06:51:42.447Z,70.75
2018-06-18T06:52:52.544Z,71.33
2018-06-18T06:54:02.366Z,71.98
2018-06-18T06:55:12.452Z,71.81
2018-06-18T06:56:22.523Z,72.02
2018-06-18T06:57:32.342Z,71.88
2018-06-18T06:58:42.457Z,72.47
2018-06-18T06:59:52.294Z,72.53
2018-06-18T07:01:02.378Z,71.75
2018-06-18T07:02:12.469Z,72.53
2018-06-18T07:03:22.365Z,72.98
2018-06-18T07:04:32.192Z,72.98
2018-06-18T07:05:42.277Z,72.85
2018-06-18T07:06:52.411Z,73.4
2018-06-18T07:08:02.678Z,73.79
2018-06-18T07:09:12.833Z,73.75
2018-06-18T07:10:22.925Z,73.17
2018-06-18T07:11:33.034Z,73.46
2018-06-18T07:12:43.162Z,72.97
2018-06-18T07:13:52.987Z,73.03
2018-06-18T07:15:03.072Z,73.52
2018-06-18T07:16:13.156Z,73.39
2018-06-18T07:17:23.238Z,73.58
2018-06-18T07:18:33.387Z,74.13
2018-06-18T07:19:43.208Z,74.68
2018-06-18T07:20:53.292Z,74.1
2018-06-18T07:22:03.333Z,74.06
2018-06-18T07:23:13.148Z,74.26
2018-06-18T07:24:23.222Z,74.02
2018-06-18T07:25:33.293Z,74.32
2018-06-18T07:26:42.854Z,74.02
2018-06-18T07:27:52.952Z,74.32
2018-06-18T07:29:03.031Z,74.32
2018-06-18T07:30:13.305Z,73.73
2018-06-18T07:31:23.344Z,74.41
2018-06-18T07:32:33.424Z,74.18
2018-06-18T07:33:43.505Z,74.76
2018-06-18T07:34:53.337Z,73.99
2018-06-18T07:36:03.410Z,74.51
2018-06-18T07:37:13.531Z,74.71
2018-06-18T07:38:23.674Z,74.41
2018-06-18T07:39:33.839Z,74.22
2018-06-18T07:40:43.395Z,73.93
2018-06-18T07:41:53.216Z,74.51
2018-06-18T07:43:03.304Z,74.35
2018-06-18T07:44:13.391Z,73.77
2018-06-18T07:45:23.221Z,74.16
2018-06-18T07:46:33.428Z,73.86
2018-06-18T07:47:43.255Z,73.96
2018-06-18T07:48:53.326Z,73.96
2018-06-18T07:50:03.423Z,73.77
2018-06-18T07:51:13.517Z,74.74
2018-06-18T07:52:23.323Z,74.39
2018-06-18T07:53:33.155Z,74.78
2018-06-18T07:54:43.306Z,74.58
2018-06-18T07:55:53.365Z,74.68
2018-06-18T07:57:03.440Z,74.68
2018-06-18T07:58:13.514Z,74.49
2018-06-18T07:59:23.338Z,74.58
2018-06-18T08:00:33.558Z,74.49
2018-06-18T08:01:43.648Z,74.39
2018-06-18T08:02:53.194Z,74.29
2018-06-18T08:04:02.485Z,74.1
2018-06-18T08:05:12.303Z,74.29
2018-06-18T08:06:22.382Z,74.43
2018-06-18T08:07:32.494Z,74.29
2018-06-18T08:08:42.605Z,74.58
2018-06-18T08:09:52.897Z,74.39
2018-06-18T08:11:03.383Z,74.29
2018-06-18T08:12:13.481Z,74.43
2018-06-18T08:13:23.584Z,74.52
2018-06-18T08:14:33.744Z,74.62
2018-06-18T08:15:43.867Z,74.62
2018-06-18T08:16:53.699Z,74.43
2018-06-18T08:18:03.533Z,74.33
2018-06-18T08:19:13.788Z,74.33
2018-06-18T08:20:24.032Z,74.43
2018-06-18T08:21:34.161Z,74.04
2018-06-18T08:22:44.271Z,74.33
2018-06-18T08:23:54.441Z,74.43
2018-06-18T08:25:04.513Z,74.72
2018-06-18T08:26:14.383Z,74.85
2018-06-18T08:27:24.969Z,74.56
2018-06-18T08:28:35.552Z,74.37
2018-06-18T08:29:45.655Z,74.37
2018-06-18T08:30:55.753Z,74.76
2018-06-18T08:32:05.852Z,74.76
2018-06-18T08:33:15.750Z,74.76
2018-06-18T08:34:25.900Z,74.37
2018-06-18T08:35:36.344Z,74.76
2018-06-18T08:36:46.493Z,74.85
2018-06-18T08:37:56.604Z,74.76
2018-06-18T08:39:06.829Z,74.85
2018-06-18T08:40:17.077Z,74.95
2018-06-18T08:41:27.196Z,74.95
2018-06-18T08:42:37.299Z,74.95
2018-06-18T08:43:47.435Z,74.85
2018-06-18T08:44:57.554Z,74.95
2018-06-18T08:46:07.792Z,74.56
2018-06-18T08:47:17.994Z,74.56
2018-06-18T08:48:28.271Z,74.56
2018-06-18T08:49:38.990Z,74.56
2018-06-18T08:50:49.142Z,74.46
2018-06-18T08:51:59.238Z,74.85
2018-06-18T08:53:09.450Z,75.04
2018-06-18T08:54:19.559Z,74.76
2018-06-18T08:55:29.648Z,74.98
2018-06-18T08:56:39.750Z,74.79
2018-06-18T08:57:50.006Z,74.6
2018-06-18T08:59:00.385Z,74.79
2018-06-18T09:00:10.231Z,74.6
2018-06-18T09:01:20.341Z,74.79
2018-06-18T09:02:30.438Z,74.89
2018-06-18T09:03:40.020Z,74.79
2018-06-18T09:04:49.900Z,74.63
2018-06-18T09:05:59.988Z,73.95
2018-06-18T09:07:10.088Z,74.34
2018-06-18T09:08:20.192Z,74.73
2018-06-18T09:09:30.274Z,74.34
2018-06-18T09:10:40.354Z,74.24
2018-06-18T09:11:50.469Z,74.15
2018-06-18T09:13:00.556Z,74.48
2018-06-18T09:14:10.646Z,74.57
2018-06-18T09:15:20.731Z,74.67
2018-06-18T09:16:30.913Z,74.77
2018-06-18T09:17:40.992Z,74.67
2018-06-18T09:18:51.131Z,74.9
2018-06-18T09:20:01.227Z,74.61
2018-06-18T09:21:11.325Z,74.51
2018-06-18T09:22:21.417Z,74.32
2018-06-18T09:23:31.500Z,74.8
2018-06-18T09:24:41.708Z,74.8
2018-06-18T09:25:51.289Z,74.9
2018-06-18T09:27:01.398Z,74.8
2018-06-18T09:28:11.494Z,74.12
2018-06-18T09:29:21.572Z,74.25
2018-06-18T09:30:31.652Z,74.35
2018-06-18T09:31:41.756Z,74.09
2018-06-18T09:32:51.573Z,73.9
2018-06-18T09:34:01.670Z,74.19
2018-06-18T09:35:11.765Z,74.13
2018-06-18T09:36:21.864Z,73.93
2018-06-18T09:37:31.968Z,74.42
2018-06-18T09:38:41.808Z,74.52
2018-06-18T09:39:51.376Z,74.42
2018-06-18T09:41:01.733Z,74.42
2018-06-18T09:42:11.821Z,74.22
2018-06-18T09:43:21.433Z,74.81
2018-06-18T09:44:31.512Z,74.77
2018-06-18T09:45:41.666Z,74.32
2018-06-18T09:46:51.499Z,74.32
2018-06-18T09:48:01.686Z,74.22
2018-06-18T09:49:12.092Z,74.91
2018-06-18T09:50:22.183Z,74.71
2018-06-18T09:51:32.276Z,74.91
2018-06-18T09:52:42.362Z,74.62
2018-06-18T09:53:52.460Z,74.71
2018-06-18T09:55:02.292Z,74.71
2018-06-18T09:56:12.124Z,74.62
2018-06-18T09:57:22.192Z,74.42
2018-06-18T09:58:32.295Z,74.95
2018-06-18T09:59:42.392Z,74.95
2018-06-18T10:00:52.504Z,74.71
2018-06-18T10:02:02.600Z,74.75
2018-06-18T10:03:12.435Z,74.65
2018-06-18T10:04:22.526Z,74.55
2018-06-18T10:05:32.613Z,74.95
2018-06-18T10:06:42.704Z,74.75
2018-06-18T10:07:52.798Z,74.85
2018-06-18T10:09:02.987Z,74.75
2018-06-18T10:10:13.123Z,74.75
2018-06-18T10:11:23.217Z,74.65
2018-06-18T10:12:33.056Z,74.65
2018-06-18T10:13:43.126Z,74.79
2018-06-18T10:14:53.001Z,74.95
2018-06-18T10:16:03.100Z,74.4
2018-06-18T10:17:13.198Z,74.49
2018-06-18T10:18:23.284Z,74.4
2018-06-18T10:19:33.102Z,74.3
2018-06-18T10:20:43.252Z,74.59
2018-06-18T10:21:53.343Z,74.3
2018-06-18T10:23:03.166Z,74.3
2018-06-18T10:24:13.111Z,74.88
2018-06-18T10:25:23.695Z,75.18
2018-06-18T10:26:33.811Z,75.18
2018-06-18T10:27:43.925Z,75.08
2018-06-18T10:28:53.747Z,74.3
2018-06-18T10:30:03.837Z,74.59
2018-06-18T10:31:13.945Z,74.33
2018-06-18T10:32:24.030Z,74.04
2018-06-18T10:33:34.112Z,73.65
2018-06-18T10:34:44.207Z,74.33
2018-06-18T10:35:54.296Z,74.63
2018-06-18T10:37:04.406Z,74.33
2018-06-18T10:38:14.228Z,73.79
2018-06-18T10:39:24.302Z,74.18
2018-06-18T10:40:34.129Z,74.08
2018-06-18T10:41:43.966Z,74.37
2018-06-18T10:42:54.057Z,74.37
2018-06-18T10:44:04.172Z,74.57
2018-06-18T10:45:13.989Z,74.73
2018-06-18T10:46:24.077Z,74.63
2018-06-18T10:47:34.188Z,74.63
2018-06-18T10:48:44.309Z,74.53
2018-06-18T10:49:54.456Z,74.53
2018-06-18T10:51:04.578Z,74.53
2018-06-18T10:52:14.682Z,74.33
2018-06-18T10:53:24.791Z,74.57
2018-06-18T10:54:34.857Z,74.37
2018-06-18T10:55:45.008Z,74.51
2018-06-18T10:56:55.118Z,74.02
2018-06-18T10:58:05.106Z,74.11
2018-06-18T10:59:15.192Z,74.02
2018-06-18T11:00:25.271Z,74.21
2018-06-18T11:01:35.091Z,74.7
2018-06-18T11:02:45.184Z,74.6
2018-06-18T11:03:55.403Z,74.41
2018-06-18T11:05:05.509Z,74.51
2018-06-18T11:06:15.596Z,74.51
2018-06-18T11:07:25.727Z,74.41
2018-06-18T11:08:35.836Z,74.41
2018-06-18T11:09:45.935Z,75.09
2018-06-18T11:10:56.041Z,75.03
2018-06-18T11:12:06.161Z,74.9
2018-06-18T11:13:16.259Z,74.9
2018-06-18T11:14:26.334Z,74.9
2018-06-18T11:15:36.450Z,74.8
2018-06-18T11:16:47.170Z,74.9
2018-06-18T11:17:58.503Z,74.8
2018-06-18T11:19:08.653Z,74.96
2018-06-18T11:20:18.742Z,75.9
2018-06-18T11:21:28.848Z,75.42
2018-06-18T11:22:38.947Z,75.32
2018-06-18T11:23:49.067Z,75.02
2018-06-18T11:24:59.219Z,75.12
2018-06-18T11:26:09.390Z,74.96
2018-06-18T11:27:19.798Z,74.24
2018-06-18T11:28:29.898Z,74.33
2018-06-18T11:29:40.304Z,74.57
2018-06-18T11:30:50.436Z,74.33
2018-06-18T11:32:00.258Z,74.76
2018-06-18T11:33:10.371Z,74.76
2018-06-18T11:34:20.473Z,75.05
2018-06-18T11:35:30.613Z,75.05
2018-06-18T11:36:40.526Z,75.15
2018-06-18T11:37:50.806Z,75.05
2018-06-18T11:39:00.975Z,75.05
2018-06-18T11:40:11.096Z,75.05
2018-06-18T11:41:21.171Z,74.96
2018-06-18T11:42:31.016Z,74.99
2018-06-18T11:43:41.267Z,75.29
2018-06-18T11:44:51.713Z,74.99
2018-06-18T11:46:01.864Z,74.51
2018-06-18T11:47:11.667Z,74.41
2018-06-18T11:48:22.029Z,74.51
2018-06-18T11:49:32.145Z,74.64
2018-06-18T11:50:42.234Z,74.7
2018-06-18T11:51:52.336Z,74.51
2018-06-18T11:53:02.209Z,75.03
2018-06-18T11:54:12.437Z,74.74
2018-06-18T11:55:22.014Z,74.25
2018-06-18T11:56:32.199Z,74.25
2018-06-18T11:57:42.582Z,74.25
2018-06-18T11:58:52.770Z,74.44
2018-06-18T12:00:02.680Z,74.54
2018-06-18T12:01:12.850Z,74.44
2018-06-18T12:02:22.726Z,74.64
2018-06-18T12:03:32.649Z,74.74
2018-06-18T12:04:42.747Z,74.44
2018-06-18T12:05:52.929Z,74.44
2018-06-18T12:07:03.107Z,74.44
2018-06-18T12:08:13.384Z,74.35
2018-06-18T12:09:23.578Z,74.35
2018-06-18T12:10:33.887Z,74.25
2018-06-18T12:11:43.724Z,74.29
2018-06-18T12:12:53.824Z,73.89
2018-06-18T12:14:03.649Z,73.79
2018-06-18T12:15:13.495Z,73.99
2018-06-18T12:16:23.601Z,74.19
2018-06-18T12:17:33.756Z,74.48
2018-06-18T12:18:43.598Z,74.38
2018-06-18T12:19:53.681Z,74.87
2018-06-18T12:21:03.780Z,74.29
2018-06-18T12:22:13.934Z,74.74
2018-06-18T12:23:23.602Z,74.29
2018-06-18T12:24:33.734Z,74.68
2018-06-18T12:25:43.557Z,74.29
2018-06-18T12:26:53.422Z,74.48
2018-06-18T12:28:03.565Z,73.99
2018-06-18T12:29:13.826Z,74.19
2018-06-18T12:30:23.947Z,74.19
2018-06-18T12:31:33.541Z,74.29
2018-06-18T12:32:43.377Z,74.02
2018-06-18T12:33:53.453Z,74.22
2018-06-18T12:35:03.585Z,74.32
2018-06-18T12:36:13.680Z,73.73
2018-06-18T12:37:23.789Z,73.54
2018-06-18T12:38:33.889Z,72.98
2018-06-18T12:39:43.741Z,73.02
2018-06-18T12:40:53.875Z,72.23
2018-06-18T12:42:04.044Z,72.56
2018-06-18T12:43:14.119Z,72.3
2018-06-18T12:44:24.228Z,72.69
2018-06-18T12:45:34.336Z,73.05
2018-06-18T12:46:44.991Z,73.15
2018-06-18T12:47:55.590Z,73.11
2018-06-18T12:49:05.773Z,73.5
2018-06-18T12:50:16.061Z,74.16
2018-06-18T12:51:26.201Z,74.39
2018-06-18T12:52:36.038Z,74.06
2018-06-18T12:53:46.140Z,74.16
2018-06-18T12:54:56.000Z,74.16
2018-06-18T12:56:06.123Z,74.26
2018-06-18T12:57:16.263Z,73.96
2018-06-18T12:58:26.120Z,73.02
2018-06-18T12:59:36.253Z,73.31
2018-06-18T13:00:46.406Z,72.96
2018-06-18T13:01:56.509Z,72.07
2018-06-18T13:03:06.613Z,72.2
2018-06-18T13:04:16.438Z,71.94
2018-06-18T13:05:26.641Z,72.24
2018-06-18T13:06:36.775Z,72.24
2018-06-18T13:07:46.979Z,72.24
2018-06-18T13:08:57.065Z,72.24
2018-06-18T13:10:06.985Z,72.33
2018-06-18T13:11:17.583Z,72.56
2018-06-18T13:12:27.675Z,72.67
2018-06-18T13:13:37.503Z,72.47
2018-06-18T13:14:47.619Z,72.47
2018-06-18T13:15:57.718Z,72.08
2018-06-18T13:17:07.887Z,71.91
2018-06-18T13:18:18.002Z,71.72
2018-06-18T13:19:28.118Z,72.7
2018-06-18T13:20:37.432Z,72.77
2018-06-18T13:21:47.619Z,72.56
2018-06-18T13:22:57.730Z,72.37
2018-06-18T13:24:07.848Z,72.67
2018-06-18T13:25:17.959Z,72.17
2018-06-18T13:26:28.067Z,71.68
2018-06-18T13:27:37.929Z,71.81
2018-06-18T13:28:48.263Z,72.01
2018-06-18T13:29:58.383Z,71.62
2018-06-18T13:31:08.560Z,71.26
2018-06-18T13:32:18.461Z,71.06
2018-06-18T13:33:28.363Z,71
2018-06-18T13:34:38.467Z,71.39
2018-06-18T13:35:48.575Z,71.42
2018-06-18T13:36:58.770Z,71.19
2018-06-18T13:38:09.132Z,71.39
2018-06-18T13:39:19.222Z,70.9
2018-06-18T13:40:29.366Z,71.19
2018-06-18T13:41:39.733Z,71.13
2018-06-18T13:42:49.873Z,70.9
2018-06-18T13:44:00.063Z,71.88
2018-06-18T13:45:10.461Z,71.69
2018-06-18T13:46:20.560Z,71.75
2018-06-18T13:47:30.680Z,72.24
2018-06-18T13:48:40.767Z,72.54
2018-06-18T13:57:08.018Z,72.77
2018-06-18T13:58:18.124Z,72.53
2018-06-18T13:59:28.277Z,73.02
2018-06-18T14:00:38.373Z,72.44
2018-06-18T14:01:48.455Z,72.2
2018-06-18T14:02:58.793Z,72.53
2018-06-18T14:04:08.887Z,71.78
2018-06-18T14:05:19.036Z,72.17
2018-06-18T14:06:29.147Z,72.17
2018-06-18T14:07:39.385Z,71.78
2018-06-18T14:08:49.720Z,71.62
2018-06-18T14:09:59.849Z,70.93
2018-06-18T14:11:09.945Z,71.52
2018-06-18T14:12:20.059Z,70.86
2018-06-18T14:13:30.146Z,71.45
2018-06-18T14:14:40.286Z,71.32
2018-06-18T14:15:50.394Z,71.45
2018-06-18T14:17:00.484Z,71.06
2018-06-18T14:18:10.588Z,71.06
2018-06-18T14:19:20.647Z,71
2018-06-18T14:20:30.464Z,71.39
2018-06-18T14:21:40.561Z,71
2018-06-18T14:22:50.661Z,71.39
2018-06-18T14:24:00.739Z,71.33
2018-06-18T14:25:10.555Z,71.78
2018-06-18T14:26:20.724Z,71.85
2018-06-18T14:27:30.572Z,72.47
2018-06-18T14:28:40.664Z,73.22
2018-06-18T14:29:50.238Z,73.38
2018-06-18T14:31:00.336Z,73.54
2018-06-18T14:32:10.167Z,73.44
2018-06-18T14:33:20.015Z,73.31
2018-06-18T14:34:30.119Z,73.11
2018-06-18T14:35:40.220Z,73.02
2018-06-18T14:36:50.066Z,73.35
2018-06-18T14:38:00.168Z,73.21
2018-06-18T14:39:10.024Z,74
2018-06-18T14:40:20.230Z,73.77
2018-06-18T14:41:30.421Z,73.77
2018-06-18T14:42:40.636Z,74.16
2018-06-18T14:43:50.918Z,74.16
2018-06-18T14:45:01.072Z,73.47
2018-06-18T14:46:11.667Z,73.11
2018-06-18T14:47:21.590Z,73.21
2018-06-18T14:48:32.097Z,73.47
2018-06-18T14:49:42.883Z,73.71
2018-06-18T14:50:53.223Z,73.47
2018-06-18T14:52:03.329Z,73.57
2018-06-18T14:53:13.429Z,73.18
2018-06-18T14:54:23.387Z,73.27
2018-06-18T14:55:33.629Z,74.06
2018-06-18T14:56:43.802Z,73.47
2018-06-18T14:57:53.853Z,73.86
2018-06-18T14:59:04.028Z,73.47
2018-06-18T15:00:14.402Z,73.86
2018-06-18T15:01:24.532Z,73.63
2018-06-18T15:02:34.375Z,73.63
2018-06-18T15:03:44.809Z,73.83
2018-06-18T15:04:55.351Z,74.08
2018-06-18T15:06:05.728Z,73.99
2018-06-18T15:07:15.681Z,73.89
2018-06-18T15:08:26.025Z,73.63
2018-06-18T15:09:36.439Z,73.54
2018-06-18T15:10:46.673Z,73.63
2018-06-18T15:11:56.788Z,73.83
2018-06-18T15:13:06.606Z,74.08
2018-06-18T15:14:16.697Z,73.79
2018-06-18T15:15:26.813Z,74.74
2018-06-18T15:16:37.003Z,74.54
2018-06-18T15:17:47.102Z,75.29
2018-06-18T15:18:57.251Z,74.99
2018-06-18T15:20:07.379Z,74.66
2018-06-18T15:21:17.522Z,74.66
2018-06-18T15:22:27.651Z,74.47
2018-06-18T15:23:37.762Z,74.66
2018-06-18T15:24:47.980Z,74.18
2018-06-18T15:25:58.204Z,74.31
2018-06-18T15:27:08.671Z,74.51
2018-06-18T15:28:19.098Z,74.02
2018-06-18T15:29:29.197Z,73.66
2018-06-18T15:30:39.281Z,73.46
2018-06-18T15:31:49.368Z,73.17
2018-06-18T15:32:59.482Z,72.88
2018-06-18T15:34:09.328Z,73.36
2018-06-18T15:35:19.246Z,73.69
2018-06-18T15:36:29.372Z,73.66
2018-06-18T15:37:39.228Z,73.75
2018-06-18T15:38:48.793Z,74.44
2018-06-18T15:39:58.910Z,74.31
2018-06-18T15:41:10.077Z,74.96
2018-06-18T15:42:20.195Z,74.73
2018-06-18T15:43:30.367Z,74.63
2018-06-18T15:44:40.534Z,75.12